sensor_id;sensor_type;location;lat;lon;timestamp;temperature;humidity
78461;SHT31;67755;51.986;5.696;2023-04-01T00:01:38;13.8;69.8
78461;SHT31;67755;51.986;5.696;2023-04-01T00:04:07;13.8;69.9
78461;SHT31;67755;51.986;5.696;2023-04-01T00:06:37;13.8;69.8
78461;SHT31;67755;51.986;5.696;2023-04-01T00:09:06;13.8;69.9
78461;SHT31;67755;51.986;5.696;2023-04-01T00:11:36;13.8;69.8
78461;SHT31;67755;51.986;5.696;2023-04-01T00:14:06;13.8;69.9
78461;SHT31;67755;51.986;5.696;2023-04-01T00:16:36;13.8;70.1
78461;SHT31;67755;51.986;5.696;2023-04-01T00:19:06;13.8;70.1
78461;SHT31;67755;51.986;5.696;2023-04-01T00:21:35;13.8;70.1
78461;SHT31;67755;51.986;5.696;2023-04-01T00:24:07;13.8;70.1
78461;SHT31;67755;51.986;5.696;2023-04-01T00:26:38;13.8;70.2
78461;SHT31;67755;51.986;5.696;2023-04-01T00:29:09;13.8;70.3
78461;SHT31;67755;51.986;5.696;2023-04-01T00:31:39;13.8;70.3
78461;SHT31;67755;51.986;5.696;2023-04-01T00:34:08;13.8;70.2
78461;SHT31;67755;51.986;5.696;2023-04-01T00:36:38;13.8;70.2
78461;SHT31;67755;51.986;5.696;2023-04-01T00:39:07;13.8;70.2
78461;SHT31;67755;51.986;5.696;2023-04-01T00:41:37;13.8;70.1
78461;SHT31;67755;51.986;5.696;2023-04-01T00:44:18;13.8;70.1
78461;SHT31;67755;51.986;5.696;2023-04-01T00:46:48;13.8;70.3
78461;SHT31;67755;51.986;5.696;2023-04-01T00:49:23;13.8;70.2
78461;SHT31;67755;51.986;5.696;2023-04-01T00:51:56;13.8;70.2
78461;SHT31;67755;51.986;5.696;2023-04-01T00:54:28;13.8;70.2
78461;SHT31;67755;51.986;5.696;2023-04-01T00:57:02;13.8;70.3
78461;SHT31;67755;51.986;5.696;2023-04-01T00:59:37;13.8;70.2
78461;SHT31;67755;51.986;5.696;2023-04-01T01:02:12;13.8;70.2
78461;SHT31;67755;51.986;5.696;2023-04-01T01:04:42;13.8;70.3
78461;SHT31;67755;51.986;5.696;2023-04-01T01:07:25;13.8;70.3
78461;SHT31;67755;51.986;5.696;2023-04-01T01:10:02;13.8;70.3
78461;SHT31;67755;51.986;5.696;2023-04-01T01:12:40;13.8;70.4
78461;SHT31;67755;51.986;5.696;2023-04-01T01:15:19;13.8;70.3
78461;SHT31;67755;51.986;5.696;2023-04-01T01:17:56;13.9;70.3
78461;SHT31;67755;51.986;5.696;2023-04-01T01:21:50;13.9;70.5
78461;SHT31;67755;51.986;5.696;2023-04-01T01:24:59;13.9;70.2
78461;SHT31;67755;51.986;5.696;2023-04-01T01:27:34;13.9;70.1
78461;SHT31;67755;51.986;5.696;2023-04-01T01:30:15;13.9;69.7
78461;SHT31;67755;51.986;5.696;2023-04-01T01:33:19;13.9;69.8
78461;SHT31;67755;51.986;5.696;2023-04-01T01:35:52;13.9;69.8
78461;SHT31;67755;51.986;5.696;2023-04-01T01:38:26;13.9;69.3
78461;SHT31;67755;51.986;5.696;2023-04-01T01:40:57;13.9;69.2
78461;SHT31;67755;51.986;5.696;2023-04-01T01:43:31;13.9;69.2
78461;SHT31;67755;51.986;5.696;2023-04-01T01:46:06;13.9;68.9
78461;SHT31;67755;51.986;5.696;2023-04-01T01:48:37;13.9;69.1
78461;SHT31;67755;51.986;5.696;2023-04-01T01:51:08;13.9;68.9
78461;SHT31;67755;51.986;5.696;2023-04-01T01:53:38;13.9;68.7
78461;SHT31;67755;51.986;5.696;2023-04-01T01:56:10;13.9;68.7
78461;SHT31;67755;51.986;5.696;2023-04-01T01:58:44;13.9;68.4
78461;SHT31;67755;51.986;5.696;2023-04-01T02:01:19;13.9;68.4
78461;SHT31;67755;51.986;5.696;2023-04-01T02:03:51;13.9;68.1
78461;SHT31;67755;51.986;5.696;2023-04-01T02:06:23;13.9;68.2
78461;SHT31;67755;51.986;5.696;2023-04-01T02:08:57;13.9;67.6
78461;SHT31;67755;51.986;5.696;2023-04-01T02:11:33;13.9;67.8
78461;SHT31;67755;51.986;5.696;2023-04-01T02:14:06;13.9;68.0
78461;SHT31;67755;51.986;5.696;2023-04-01T02:16:42;13.9;68.3
78461;SHT31;67755;51.986;5.696;2023-04-01T02:19:15;13.8;68.6
78461;SHT31;67755;51.986;5.696;2023-04-01T02:21:53;13.8;68.5
78461;SHT31;67755;51.986;5.696;2023-04-01T02:24:27;13.8;68.6
78461;SHT31;67755;51.986;5.696;2023-04-01T02:27:00;13.8;68.6
78461;SHT31;67755;51.986;5.696;2023-04-01T02:29:30;13.8;68.7
78461;SHT31;67755;51.986;5.696;2023-04-01T02:32:00;13.8;68.6
78461;SHT31;67755;51.986;5.696;2023-04-01T02:34:31;13.8;68.6
78461;SHT31;67755;51.986;5.696;2023-04-01T02:37:01;13.8;68.7
78461;SHT31;67755;51.986;5.696;2023-04-01T02:39:31;13.8;68.8
78461;SHT31;67755;51.986;5.696;2023-04-01T02:42:01;13.7;68.8
78461;SHT31;67755;51.986;5.696;2023-04-01T02:44:31;13.7;68.7
78461;SHT31;67755;51.986;5.696;2023-04-01T02:47:01;13.7;69.0
78461;SHT31;67755;51.986;5.696;2023-04-01T02:49:31;13.7;69.2
78461;SHT31;67755;51.986;5.696;2023-04-01T02:52:00;13.7;69.2
78461;SHT31;67755;51.986;5.696;2023-04-01T02:54:30;13.7;69.1
78461;SHT31;67755;51.986;5.696;2023-04-01T02:57:01;13.6;69.1
78461;SHT31;67755;51.986;5.696;2023-04-01T02:59:31;13.6;69.2
78461;SHT31;67755;51.986;5.696;2023-04-01T03:02:02;13.6;69.3
78461;SHT31;67755;51.986;5.696;2023-04-01T03:04:32;13.6;69.5
78461;SHT31;67755;51.986;5.696;2023-04-01T03:07:01;13.6;69.5
78461;SHT31;67755;51.986;5.696;2023-04-01T03:09:33;13.6;69.4
78461;SHT31;67755;51.986;5.696;2023-04-01T03:12:02;13.6;69.1
78461;SHT31;67755;51.986;5.696;2023-04-01T03:14:32;13.6;69.4
78461;SHT31;67755;51.986;5.696;2023-04-01T03:17:02;13.6;69.1
78461;SHT31;67755;51.986;5.696;2023-04-01T03:19:32;13.6;69.3
78461;SHT31;67755;51.986;5.696;2023-04-01T03:22:03;13.6;69.2
78461;SHT31;67755;51.986;5.696;2023-04-01T03:24:33;13.6;69.0
78461;SHT31;67755;51.986;5.696;2023-04-01T03:27:02;13.5;69.1
78461;SHT31;67755;51.986;5.696;2023-04-01T03:29:32;13.5;69.1
78461;SHT31;67755;51.986;5.696;2023-04-01T03:32:02;13.5;69.3
78461;SHT31;67755;51.986;5.696;2023-04-01T03:34:32;13.5;69.4
78461;SHT31;67755;51.986;5.696;2023-04-01T03:37:05;13.5;69.3
78461;SHT31;67755;51.986;5.696;2023-04-01T03:39:37;13.5;69.3
78461;SHT31;67755;51.986;5.696;2023-04-01T03:42:07;13.5;69.0
78461;SHT31;67755;51.986;5.696;2023-04-01T03:44:37;13.5;69.1
78461;SHT31;67755;51.986;5.696;2023-04-01T03:47:08;13.5;69.2
78461;SHT31;67755;51.986;5.696;2023-04-01T03:49:38;13.5;69.1
78461;SHT31;67755;51.986;5.696;2023-04-01T03:52:10;13.5;68.9
78461;SHT31;67755;51.986;5.696;2023-04-01T03:54:42;13.5;69.1
78461;SHT31;67755;51.986;5.696;2023-04-01T03:57:11;13.5;68.9
78461;SHT31;67755;51.986;5.696;2023-04-01T03:59:41;13.5;69.1
78461;SHT31;67755;51.986;5.696;2023-04-01T04:02:13;13.5;69.0
78461;SHT31;67755;51.986;5.696;2023-04-01T04:04:42;13.5;69.0
78461;SHT31;67755;51.986;5.696;2023-04-01T04:07:12;13.5;69.0
78461;SHT31;67755;51.986;5.696;2023-04-01T04:09:44;13.5;68.8
78461;SHT31;67755;51.986;5.696;2023-04-01T04:12:13;13.5;68.9
78461;SHT31;67755;51.986;5.696;2023-04-01T04:14:43;13.5;69.0
78461;SHT31;67755;51.986;5.696;2023-04-01T04:17:12;13.5;68.9
78461;SHT31;67755;51.986;5.696;2023-04-01T04:19:44;13.5;69.1
78461;SHT31;67755;51.986;5.696;2023-04-01T04:22:15;13.5;69.1
78461;SHT31;67755;51.986;5.696;2023-04-01T04:24:44;13.5;69.1
78461;SHT31;67755;51.986;5.696;2023-04-01T04:27:14;13.5;69.2
78461;SHT31;67755;51.986;5.696;2023-04-01T04:29:45;13.5;69.2
78461;SHT31;67755;51.986;5.696;2023-04-01T04:32:14;13.5;69.2
78461;SHT31;67755;51.986;5.696;2023-04-01T04:34:44;13.5;69.3
78461;SHT31;67755;51.986;5.696;2023-04-01T04:37:13;13.5;69.3
78461;SHT31;67755;51.986;5.696;2023-04-01T04:39:43;13.6;69.2
78461;SHT31;67755;51.986;5.696;2023-04-01T04:42:14;13.6;69.2
78461;SHT31;67755;51.986;5.696;2023-04-01T04:44:44;13.6;69.2
78461;SHT31;67755;51.986;5.696;2023-04-01T04:47:13;13.6;69.2
78461;SHT31;67755;51.986;5.696;2023-04-01T04:49:43;13.6;69.3
78461;SHT31;67755;51.986;5.696;2023-04-01T04:52:12;13.6;69.4
78461;SHT31;67755;51.986;5.696;2023-04-01T04:54:42;13.6;69.3
78461;SHT31;67755;51.986;5.696;2023-04-01T04:57:11;13.6;69.3
78461;SHT31;67755;51.986;5.696;2023-04-01T04:59:41;13.6;69.3
78461;SHT31;67755;51.986;5.696;2023-04-01T05:02:11;13.6;69.4
78461;SHT31;67755;51.986;5.696;2023-04-01T05:04:43;13.6;69.4
78461;SHT31;67755;51.986;5.696;2023-04-01T05:07:12;13.6;69.5
78461;SHT31;67755;51.986;5.696;2023-04-01T05:09:42;13.6;69.4
78461;SHT31;67755;51.986;5.696;2023-04-01T05:12:13;13.6;69.5
78461;SHT31;67755;51.986;5.696;2023-04-01T05:14:42;13.6;69.5
78461;SHT31;67755;51.986;5.696;2023-04-01T05:17:12;13.6;69.5
78461;SHT31;67755;51.986;5.696;2023-04-01T05:19:42;13.7;69.5
78461;SHT31;67755;51.986;5.696;2023-04-01T05:22:12;13.7;69.6
78461;SHT31;67755;51.986;5.696;2023-04-01T05:24:41;13.7;69.6
78461;SHT31;67755;51.986;5.696;2023-04-01T05:27:11;13.7;69.6
78461;SHT31;67755;51.986;5.696;2023-04-01T05:29:40;13.7;69.6
78461;SHT31;67755;51.986;5.696;2023-04-01T05:32:10;13.7;69.7
78461;SHT31;67755;51.986;5.696;2023-04-01T05:34:39;13.7;69.7
78461;SHT31;67755;51.986;5.696;2023-04-01T05:37:09;13.7;69.7
78461;SHT31;67755;51.986;5.696;2023-04-01T05:39:39;13.8;69.7
78461;SHT31;67755;51.986;5.696;2023-04-01T05:42:11;13.8;69.7
78461;SHT31;67755;51.986;5.696;2023-04-01T05:44:42;13.8;69.7
78461;SHT31;67755;51.986;5.696;2023-04-01T05:47:13;13.8;69.7
78461;SHT31;67755;51.986;5.696;2023-04-01T05:49:43;13.8;69.7
78461;SHT31;67755;51.986;5.696;2023-04-01T05:52:12;13.8;69.8
78461;SHT31;67755;51.986;5.696;2023-04-01T05:54:44;13.8;69.8
78461;SHT31;67755;51.986;5.696;2023-04-01T05:57:13;13.8;69.9
78461;SHT31;67755;51.986;5.696;2023-04-01T05:59:43;13.9;69.8
78461;SHT31;67755;51.986;5.696;2023-04-01T06:02:16;13.9;70.0
78461;SHT31;67755;51.986;5.696;2023-04-01T06:04:47;13.9;69.9
78461;SHT31;67755;51.986;5.696;2023-04-01T06:07:18;13.9;69.9
78461;SHT31;67755;51.986;5.696;2023-04-01T06:09:47;13.9;69.9
78461;SHT31;67755;51.986;5.696;2023-04-01T06:12:39;13.9;70.0
78461;SHT31;67755;51.986;5.696;2023-04-01T06:15:20;13.9;69.9
78461;SHT31;67755;51.986;5.696;2023-04-01T06:18:17;13.9;70.0
78461;SHT31;67755;51.986;5.696;2023-04-01T06:20:58;13.9;70.0
78461;SHT31;67755;51.986;5.696;2023-04-01T06:23:43;14.0;70.0
78461;SHT31;67755;51.986;5.696;2023-04-01T06:26:21;14.0;69.9
78461;SHT31;67755;51.986;5.696;2023-04-01T06:29:02;14.0;69.9
78461;SHT31;67755;51.986;5.696;2023-04-01T06:31:46;14.0;69.9
78461;SHT31;67755;51.986;5.696;2023-04-01T06:35:13;14.0;70.0
78461;SHT31;67755;51.986;5.696;2023-04-01T06:39:13;14.0;70.1
78461;SHT31;67755;51.986;5.696;2023-04-01T06:42:36;14.0;70.2
78461;SHT31;67755;51.986;5.696;2023-04-01T06:45:20;14.0;70.2
78461;SHT31;67755;51.986;5.696;2023-04-01T06:48:29;14.0;70.2
78461;SHT31;67755;51.986;5.696;2023-04-01T06:51:12;14.0;70.1
78461;SHT31;67755;51.986;5.696;2023-04-01T06:53:53;14.0;70.3
78461;SHT31;67755;51.986;5.696;2023-04-01T06:56:26;14.0;70.4
78461;SHT31;67755;51.986;5.696;2023-04-01T06:59:01;14.0;70.3
78461;SHT31;67755;51.986;5.696;2023-04-01T07:01:36;14.0;70.3
78461;SHT31;67755;51.986;5.696;2023-04-01T07:04:15;14.0;70.4
78461;SHT31;67755;51.986;5.696;2023-04-01T07:06:50;14.0;70.3
78461;SHT31;67755;51.986;5.696;2023-04-01T07:09:27;14.0;70.5
78461;SHT31;67755;51.986;5.696;2023-04-01T07:12:04;14.0;70.6
78461;SHT31;67755;51.986;5.696;2023-04-01T07:14:40;14.0;70.7
78461;SHT31;67755;51.986;5.696;2023-04-01T07:17:15;14.0;70.6
78461;SHT31;67755;51.986;5.696;2023-04-01T07:19:51;14.0;70.6
78461;SHT31;67755;51.986;5.696;2023-04-01T07:22:27;14.0;70.5
78461;SHT31;67755;51.986;5.696;2023-04-01T07:25:03;14.0;70.5
78461;SHT31;67755;51.986;5.696;2023-04-01T07:27:36;14.1;70.5
78461;SHT31;67755;51.986;5.696;2023-04-01T07:30:15;14.1;70.6
78461;SHT31;67755;51.986;5.696;2023-04-01T07:32:49;14.1;70.5
78461;SHT31;67755;51.986;5.696;2023-04-01T07:35:27;14.1;70.6
78461;SHT31;67755;51.986;5.696;2023-04-01T07:38:14;14.1;70.5
78461;SHT31;67755;51.986;5.696;2023-04-01T07:40:53;14.1;70.7
78461;SHT31;67755;51.986;5.696;2023-04-01T07:43:43;14.1;70.2
78461;SHT31;67755;51.986;5.696;2023-04-01T07:46:26;14.1;70.4
78461;SHT31;67755;51.986;5.696;2023-04-01T07:49:06;14.1;70.4
78461;SHT31;67755;51.986;5.696;2023-04-01T07:51:45;14.2;70.4
78461;SHT31;67755;51.986;5.696;2023-04-01T07:54:24;14.2;69.7
78461;SHT31;67755;51.986;5.696;2023-04-01T07:57:04;14.2;70.3
78461;SHT31;67755;51.986;5.696;2023-04-01T07:59:43;14.2;70.4
78461;SHT31;67755;51.986;5.696;2023-04-01T08:02:27;14.2;70.3
78461;SHT31;67755;51.986;5.696;2023-04-01T08:05:06;14.2;70.3
78461;SHT31;67755;51.986;5.696;2023-04-01T08:07:48;14.2;70.1
78461;SHT31;67755;51.986;5.696;2023-04-01T08:10:25;14.2;70.2
78461;SHT31;67755;51.986;5.696;2023-04-01T08:13:06;14.2;70.3
78461;SHT31;67755;51.986;5.696;2023-04-01T08:15:44;14.2;70.2
78461;SHT31;67755;51.986;5.696;2023-04-01T08:18:29;14.2;70.5
78461;SHT31;67755;51.986;5.696;2023-04-01T08:21:05;14.2;70.4
78461;SHT31;67755;51.986;5.696;2023-04-01T08:23:41;14.2;70.7
78461;SHT31;67755;51.986;5.696;2023-04-01T08:26:22;14.2;70.6
78461;SHT31;67755;51.986;5.696;2023-04-01T08:29:01;14.2;70.9
78461;SHT31;67755;51.986;5.696;2023-04-01T08:31:43;14.2;70.7
78461;SHT31;67755;51.986;5.696;2023-04-01T08:34:17;14.3;70.7
78461;SHT31;67755;51.986;5.696;2023-04-01T08:36:52;14.3;70.6
78461;SHT31;67755;51.986;5.696;2023-04-01T08:39:31;14.3;70.5
78461;SHT31;67755;51.986;5.696;2023-04-01T08:42:27;14.3;70.6
78461;SHT31;67755;51.986;5.696;2023-04-01T08:45:20;14.4;70.2
78461;SHT31;67755;51.986;5.696;2023-04-01T08:48:14;14.4;70.2
78461;SHT31;67755;51.986;5.696;2023-04-01T08:50:57;14.4;70.3
78461;SHT31;67755;51.986;5.696;2023-04-01T08:53:49;14.4;70.2
78461;SHT31;67755;51.986;5.696;2023-04-01T08:56:29;14.4;70.2
78461;SHT31;67755;51.986;5.696;2023-04-01T08:59:28;14.4;70.3
78461;SHT31;67755;51.986;5.696;2023-04-01T09:06:40;14.4;70.0
78461;SHT31;67755;51.986;5.696;2023-04-01T09:09:47;14.4;70.3
78461;SHT31;67755;51.986;5.696;2023-04-01T09:14:03;14.4;70.1
78461;SHT31;67755;51.986;5.696;2023-04-01T09:16:59;14.5;70.4
78461;SHT31;67755;51.986;5.696;2023-04-01T09:19:47;14.5;70.6
78461;SHT31;67755;51.986;5.696;2023-04-01T09:22:44;14.5;70.2
78461;SHT31;67755;51.986;5.696;2023-04-01T09:25:26;14.5;70.3
78461;SHT31;67755;51.986;5.696;2023-04-01T09:28:10;14.5;70.2
78461;SHT31;67755;51.986;5.696;2023-04-01T09:31:39;14.6;70.1
78461;SHT31;67755;51.986;5.696;2023-04-01T09:34:26;14.6;70.3
78461;SHT31;67755;51.986;5.696;2023-04-01T09:37:17;14.6;70.8
78461;SHT31;67755;51.986;5.696;2023-04-01T09:40:13;14.6;70.4
78461;SHT31;67755;51.986;5.696;2023-04-01T09:42:49;14.6;70.1
78461;SHT31;67755;51.986;5.696;2023-04-01T09:45:37;14.7;70.6
78461;SHT31;67755;51.986;5.696;2023-04-01T09:48:24;14.7;70.3
78461;SHT31;67755;51.986;5.696;2023-04-01T09:51:12;14.7;69.9
78461;SHT31;67755;51.986;5.696;2023-04-01T09:54:00;14.7;70.0
78461;SHT31;67755;51.986;5.696;2023-04-01T09:58:27;14.8;70.4
78461;SHT31;67755;51.986;5.696;2023-04-01T10:04:39;14.8;70.4
78461;SHT31;67755;51.986;5.696;2023-04-01T10:07:50;14.8;70.7
78461;SHT31;67755;51.986;5.696;2023-04-01T10:10:45;14.9;71.5
78461;SHT31;67755;51.986;5.696;2023-04-01T10:13:57;14.9;71.1
78461;SHT31;67755;51.986;5.696;2023-04-01T10:17:59;14.9;71.2
78461;SHT31;67755;51.986;5.696;2023-04-01T10:21:02;15.0;71.2
78461;SHT31;67755;51.986;5.696;2023-04-01T10:24:01;15.1;72.3
78461;SHT31;67755;51.986;5.696;2023-04-01T10:32:19;15.2;71.0
78461;SHT31;67755;51.986;5.696;2023-04-01T10:37:01;15.3;70.3
78461;SHT31;67755;51.986;5.696;2023-04-01T10:42:58;15.4;69.7
78461;SHT31;67755;51.986;5.696;2023-04-01T10:47:37;15.5;69.2
78461;SHT31;67755;51.986;5.696;2023-04-01T10:50:40;15.6;70.3
78461;SHT31;67755;51.986;5.696;2023-04-01T10:55:31;15.6;68.3
78461;SHT31;67755;51.986;5.696;2023-04-01T10:58:41;15.7;68.9
78461;SHT31;67755;51.986;5.696;2023-04-01T11:01:38;15.8;68.2
78461;SHT31;67755;51.986;5.696;2023-04-01T11:06:32;15.8;67.7
78461;SHT31;67755;51.986;5.696;2023-04-01T11:13:50;15.9;67.3
78461;SHT31;67755;51.986;5.696;2023-04-01T11:18:04;15.9;68.1
78461;SHT31;67755;51.986;5.696;2023-04-01T11:26:08;16.0;67.3
78461;SHT31;67755;51.986;5.696;2023-04-01T11:30:22;16.0;66.6
78461;SHT31;67755;51.986;5.696;2023-04-01T11:33:01;16.1;66.6
78461;SHT31;67755;51.986;5.696;2023-04-01T11:36:21;16.1;66.5
78461;SHT31;67755;51.986;5.696;2023-04-01T11:39:14;16.1;65.4
78461;SHT31;67755;51.986;5.696;2023-04-01T11:42:00;16.1;66.1
78461;SHT31;67755;51.986;5.696;2023-04-01T11:44:36;16.1;65.8
78461;SHT31;67755;51.986;5.696;2023-04-01T11:47:44;16.1;66.1
78461;SHT31;67755;51.986;5.696;2023-04-01T11:50:23;16.1;65.3
78461;SHT31;67755;51.986;5.696;2023-04-01T11:53:08;16.1;65.7
78461;SHT31;67755;51.986;5.696;2023-04-01T11:55:51;16.1;65.1
78461;SHT31;67755;51.986;5.696;2023-04-01T11:58:46;16.1;65.9
78461;SHT31;67755;51.986;5.696;2023-04-01T12:01:25;16.1;65.3
78461;SHT31;67755;51.986;5.696;2023-04-01T12:04:16;16.1;65.5
78461;SHT31;67755;51.986;5.696;2023-04-01T12:07:05;16.0;65.8
78461;SHT31;67755;51.986;5.696;2023-04-01T12:09:43;16.0;65.7
78461;SHT31;67755;51.986;5.696;2023-04-01T12:12:20;16.0;66.5
78461;SHT31;67755;51.986;5.696;2023-04-01T12:15:02;16.0;66.5
78461;SHT31;67755;51.986;5.696;2023-04-01T12:17:43;16.0;66.6
78461;SHT31;67755;51.986;5.696;2023-04-01T12:20:24;16.0;66.8
78461;SHT31;67755;51.986;5.696;2023-04-01T12:23:09;16.0;66.3
78461;SHT31;67755;51.986;5.696;2023-04-01T12:26:25;16.0;66.4
78461;SHT31;67755;51.986;5.696;2023-04-01T12:29:21;16.0;66.6
78461;SHT31;67755;51.986;5.696;2023-04-01T12:32:01;16.0;66.4
78461;SHT31;67755;51.986;5.696;2023-04-01T12:34:56;16.0;65.5
78461;SHT31;67755;51.986;5.696;2023-04-01T12:37:35;16.0;65.7
78461;SHT31;67755;51.986;5.696;2023-04-01T12:40:27;16.0;65.1
78461;SHT31;67755;51.986;5.696;2023-04-01T12:43:14;16.0;65.2
78461;SHT31;67755;51.986;5.696;2023-04-01T12:45:57;16.0;65.8
78461;SHT31;67755;51.986;5.696;2023-04-01T12:50:24;16.0;65.4
78461;SHT31;67755;51.986;5.696;2023-04-01T12:53:17;15.9;66.1
78461;SHT31;67755;51.986;5.696;2023-04-01T12:55:48;15.9;66.3
78461;SHT31;67755;51.986;5.696;2023-04-01T12:58:56;15.9;66.0
78461;SHT31;67755;51.986;5.696;2023-04-01T13:04:50;15.9;66.6
78461;SHT31;67755;51.986;5.696;2023-04-01T13:07:39;15.9;66.9
78461;SHT31;67755;51.986;5.696;2023-04-01T13:10:25;15.9;66.8
78461;SHT31;67755;51.986;5.696;2023-04-01T13:14:13;15.9;66.7
78461;SHT31;67755;51.986;5.696;2023-04-01T13:16:54;15.9;67.2
78461;SHT31;67755;51.986;5.696;2023-04-01T13:19:34;15.9;67.2
78461;SHT31;67755;51.986;5.696;2023-04-01T13:22:14;15.9;66.4
78461;SHT31;67755;51.986;5.696;2023-04-01T13:24:55;15.9;67.2
78461;SHT31;67755;51.986;5.696;2023-04-01T13:27:36;15.9;67.2
78461;SHT31;67755;51.986;5.696;2023-04-01T13:30:26;15.9;66.4
78461;SHT31;67755;51.986;5.696;2023-04-01T13:33:08;15.9;66.7
78461;SHT31;67755;51.986;5.696;2023-04-01T13:35:46;16.0;66.5
78461;SHT31;67755;51.986;5.696;2023-04-01T13:38:37;16.0;66.5
78461;SHT31;67755;51.986;5.696;2023-04-01T13:41:18;16.0;67.0
78461;SHT31;67755;51.986;5.696;2023-04-01T13:43:55;16.0;67.1
78461;SHT31;67755;51.986;5.696;2023-04-01T13:47:07;16.0;67.1
78461;SHT31;67755;51.986;5.696;2023-04-01T13:50:59;16.0;67.2
78461;SHT31;67755;51.986;5.696;2023-04-01T13:54:11;16.0;66.0
78461;SHT31;67755;51.986;5.696;2023-04-01T13:56:53;16.0;66.1
78461;SHT31;67755;51.986;5.696;2023-04-01T13:59:57;16.0;65.9
78461;SHT31;67755;51.986;5.696;2023-04-01T14:02:54;16.0;66.1
78461;SHT31;67755;51.986;5.696;2023-04-01T14:05:47;16.0;65.9
78461;SHT31;67755;51.986;5.696;2023-04-01T14:08:29;16.0;65.9
78461;SHT31;67755;51.986;5.696;2023-04-01T14:11:17;16.0;66.4
78461;SHT31;67755;51.986;5.696;2023-04-01T14:13:59;15.9;66.5
78461;SHT31;67755;51.986;5.696;2023-04-01T14:17:27;15.9;66.6
78461;SHT31;67755;51.986;5.696;2023-04-01T14:21:58;16.0;66.7
78461;SHT31;67755;51.986;5.696;2023-04-01T14:24:49;16.0;66.7
78461;SHT31;67755;51.986;5.696;2023-04-01T14:27:35;16.0;66.7
78461;SHT31;67755;51.986;5.696;2023-04-01T14:34:26;16.0;66.7
78461;SHT31;67755;51.986;5.696;2023-04-01T14:37:08;16.1;66.8
78461;SHT31;67755;51.986;5.696;2023-04-01T14:40:00;16.1;66.9
78461;SHT31;67755;51.986;5.696;2023-04-01T14:42:53;16.1;66.8
78461;SHT31;67755;51.986;5.696;2023-04-01T14:45:46;16.1;66.5
78461;SHT31;67755;51.986;5.696;2023-04-01T14:48:31;16.1;66.4
78461;SHT31;67755;51.986;5.696;2023-04-01T14:51:10;16.1;66.5
78461;SHT31;67755;51.986;5.696;2023-04-01T14:53:55;16.1;66.3
78461;SHT31;67755;51.986;5.696;2023-04-01T14:56:42;16.1;66.4
78461;SHT31;67755;51.986;5.696;2023-04-01T14:59:28;16.2;66.2
78461;SHT31;67755;51.986;5.696;2023-04-01T15:02:02;16.2;66.4
78461;SHT31;67755;51.986;5.696;2023-04-01T15:04:58;16.2;66.8
78461;SHT31;67755;51.986;5.696;2023-04-01T15:07:50;16.2;66.7
78461;SHT31;67755;51.986;5.696;2023-04-01T15:10:47;16.2;66.6
78461;SHT31;67755;51.986;5.696;2023-04-01T15:13:36;16.2;66.2
78461;SHT31;67755;51.986;5.696;2023-04-01T15:16:21;16.2;66.3
78461;SHT31;67755;51.986;5.696;2023-04-01T15:19:04;16.2;66.6
78461;SHT31;67755;51.986;5.696;2023-04-01T15:22:08;16.2;66.5
78461;SHT31;67755;51.986;5.696;2023-04-01T15:24:46;16.2;66.4
78461;SHT31;67755;51.986;5.696;2023-04-01T15:27:32;16.2;66.3
78461;SHT31;67755;51.986;5.696;2023-04-01T15:30:25;16.2;66.3
78461;SHT31;67755;51.986;5.696;2023-04-01T15:33:20;16.2;66.6
78461;SHT31;67755;51.986;5.696;2023-04-01T15:35:59;16.1;64.7
78461;SHT31;67755;51.986;5.696;2023-04-01T15:38:41;16.1;65.4
78461;SHT31;67755;51.986;5.696;2023-04-01T15:41:16;16.1;65.5
78461;SHT31;67755;51.986;5.696;2023-04-01T15:43:48;16.1;65.5
78461;SHT31;67755;51.986;5.696;2023-04-01T15:46:28;16.0;65.9
78461;SHT31;67755;51.986;5.696;2023-04-01T15:49:22;16.0;65.7
78461;SHT31;67755;51.986;5.696;2023-04-01T15:52:11;16.0;65.1
78461;SHT31;67755;51.986;5.696;2023-04-01T15:55:07;15.9;65.4
78461;SHT31;67755;51.986;5.696;2023-04-01T15:57:44;15.9;65.8
78461;SHT31;67755;51.986;5.696;2023-04-01T16:00:28;15.9;66.2
78461;SHT31;67755;51.986;5.696;2023-04-01T16:03:19;15.9;66.7
78461;SHT31;67755;51.986;5.696;2023-04-01T16:06:07;15.8;66.7
78461;SHT31;67755;51.986;5.696;2023-04-01T16:08:58;15.8;66.1
78461;SHT31;67755;51.986;5.696;2023-04-01T16:11:41;15.8;65.9
78461;SHT31;67755;51.986;5.696;2023-04-01T16:14:28;15.8;65.5
78461;SHT31;67755;51.986;5.696;2023-04-01T16:17:15;15.8;64.9
78461;SHT31;67755;51.986;5.696;2023-04-01T16:19:51;15.7;65.1
78461;SHT31;67755;51.986;5.696;2023-04-01T16:22:28;15.7;65.8
78461;SHT31;67755;51.986;5.696;2023-04-01T16:25:20;15.7;65.9
78461;SHT31;67755;51.986;5.696;2023-04-01T16:27:58;15.6;65.5
78461;SHT31;67755;51.986;5.696;2023-04-01T16:30:37;15.6;65.5
78461;SHT31;67755;51.986;5.696;2023-04-01T16:33:15;15.6;65.4
78461;SHT31;67755;51.986;5.696;2023-04-01T16:35:57;15.6;65.2
78461;SHT31;67755;51.986;5.696;2023-04-01T16:38:37;15.6;65.3
78461;SHT31;67755;51.986;5.696;2023-04-01T16:41:16;15.6;65.4
78461;SHT31;67755;51.986;5.696;2023-04-01T16:43:50;15.6;65.6
78461;SHT31;67755;51.986;5.696;2023-04-01T16:46:31;15.6;65.2
78461;SHT31;67755;51.986;5.696;2023-04-01T16:49:23;15.5;65.4
78461;SHT31;67755;51.986;5.696;2023-04-01T16:52:13;15.5;65.0
78461;SHT31;67755;51.986;5.696;2023-04-01T16:54:44;15.5;65.4
78461;SHT31;67755;51.986;5.696;2023-04-01T16:57:23;15.5;65.5
78461;SHT31;67755;51.986;5.696;2023-04-01T17:00:14;15.5;65.1
78461;SHT31;67755;51.986;5.696;2023-04-01T17:02:51;15.4;64.5
78461;SHT31;67755;51.986;5.696;2023-04-01T17:05:36;15.4;64.6
78461;SHT31;67755;51.986;5.696;2023-04-01T17:08:17;15.4;64.9
78461;SHT31;67755;51.986;5.696;2023-04-01T17:10:58;15.3;64.6
78461;SHT31;67755;51.986;5.696;2023-04-01T17:13:34;15.3;64.7
78461;SHT31;67755;51.986;5.696;2023-04-01T17:16:30;15.3;64.9
78461;SHT31;67755;51.986;5.696;2023-04-01T17:19:13;15.2;64.7
78461;SHT31;67755;51.986;5.696;2023-04-01T17:21:57;15.2;64.6
78461;SHT31;67755;51.986;5.696;2023-04-01T17:24:49;15.2;64.7
78461;SHT31;67755;51.986;5.696;2023-04-01T17:27:33;15.1;64.4
78461;SHT31;67755;51.986;5.696;2023-04-01T17:30:19;15.1;64.7
78461;SHT31;67755;51.986;5.696;2023-04-01T17:33:08;15.1;64.7
78461;SHT31;67755;51.986;5.696;2023-04-01T17:35:50;15.0;64.5
78461;SHT31;67755;51.986;5.696;2023-04-01T17:38:40;15.0;64.6
78461;SHT31;67755;51.986;5.696;2023-04-01T17:41:27;14.9;64.5
78461;SHT31;67755;51.986;5.696;2023-04-01T17:44:11;14.9;64.4
78461;SHT31;67755;51.986;5.696;2023-04-01T17:46:51;14.9;64.9
78461;SHT31;67755;51.986;5.696;2023-04-01T17:49:26;14.8;64.6
78461;SHT31;67755;51.986;5.696;2023-04-01T17:52:03;14.8;64.5
78461;SHT31;67755;51.986;5.696;2023-04-01T17:54:41;14.7;63.9
78461;SHT31;67755;51.986;5.696;2023-04-01T17:57:34;14.7;64.5
78461;SHT31;67755;51.986;5.696;2023-04-01T18:00:18;14.7;65.0
78461;SHT31;67755;51.986;5.696;2023-04-01T18:03:04;14.6;64.7
78461;SHT31;67755;51.986;5.696;2023-04-01T18:05:54;14.6;64.9
78461;SHT31;67755;51.986;5.696;2023-04-01T18:08:41;14.6;64.4
78461;SHT31;67755;51.986;5.696;2023-04-01T18:11:24;14.5;64.5
78461;SHT31;67755;51.986;5.696;2023-04-01T18:15:08;14.5;63.6
78461;SHT31;67755;51.986;5.696;2023-04-01T18:17:56;14.4;64.2
78461;SHT31;67755;51.986;5.696;2023-04-01T18:20:41;14.4;64.1
78461;SHT31;67755;51.986;5.696;2023-04-01T18:23:23;14.4;64.3
78461;SHT31;67755;51.986;5.696;2023-04-01T18:26:04;14.3;63.9
78461;SHT31;67755;51.986;5.696;2023-04-01T18:28:38;14.3;64.1